Hauptseite
METAR-TAF:

METAR-TAF

Flughäfen :

Militärflugplatz Nancy-Ochey

Nancy, Frankreich

Breite: 48-35N, Länge: 005-58E, Höhe: 336 m

Beobachtung

Neuester Wetterbericht von vor 26 Minuten, um 03:00 UTC
Wind 2 kt aus Nord
Temperatur 10°C
Luftfeuchtigkeit 82%
Luftdruck 1017 hPa
Sichtweite 10 km oder mehr
keine Wolken unter 1500 m und keine Kumulonimbus oder Gewitterwolken

METAR: LFSO 160300Z AUTO 01002KT CAVOK 10/07 Q1017

Zeit: 05:26 (03:26 UTC)


TAF: fehlend

Wetterbeobachtungen und Prognosen von mehr als 4000 Flughäfen (METAR und TAF Bericht).

Die verfügbaren Stationen werden durch gelbe und rote Markierungen auf der Karte dargestellt.

Führen Sie die Maus auf sie, um den Namen der Station zu sehen.

Darauf klicken, um die Beobachtung von Wetterbeobachtungen und Prognosen zu sehen.

Um die Karte zu ändern : klicken Sie auf den grünen Tasten mit einem schwarzen Kreuz Zum Vergrößern, auf den grünen Button mit einem Gedankenstrich zu verkleinern, oder auf die grünen Pfeile für benachbarte Karten.


METAR-TAF: